createdAt,value
2017-05-26T00:00:14.209Z,56.88
2017-05-26T00:02:29.796Z,56.4
2017-05-26T00:04:45.373Z,56.98
2017-05-26T00:07:00.862Z,57.43
2017-05-26T00:09:16.427Z,57.43
2017-05-26T00:11:40.420Z,56.78
2017-05-26T00:14:04.404Z,58.29
2017-05-26T00:16:28.278Z,57.9
2017-05-26T00:18:52.260Z,57.43
2017-05-26T00:21:16.245Z,56.98
2017-05-26T00:23:40.213Z,57.26
2017-05-26T00:26:04.194Z,57.36
2017-05-26T00:28:19.766Z,56.88
2017-05-26T00:30:43.659Z,56.88
2017-05-26T00:32:53.539Z,57.26
2017-05-26T00:35:17.482Z,58.58
2017-05-26T00:37:18.779Z,58.87
2017-05-26T00:39:42.811Z,59.7
2017-05-26T00:41:58.288Z,59.8
2017-05-26T00:44:22.168Z,60.47
2017-05-26T00:46:46.044Z,59.73
2017-05-26T00:49:10.021Z,59.34
2017-05-26T00:51:34.001Z,58.87
2017-05-26T00:53:43.894Z,59.34
2017-05-26T00:56:07.825Z,59.34
2017-05-26T00:58:31.698Z,58.87
2017-05-26T01:00:55.582Z,59.16
2017-05-26T01:03:11.134Z,59.03
2017-05-26T01:05:26.627Z,59.61
2017-05-26T01:07:50.525Z,59.7
2017-05-26T01:10:14.401Z,59.61
2017-05-26T01:12:38.375Z,59.8
2017-05-26T01:14:39.863Z,60.08
2017-05-26T01:17:03.817Z,60.44
2017-05-26T01:19:14.140Z,60.38
2017-05-26T01:21:38.151Z,60.57
2017-05-26T01:24:02.130Z,60.47
2017-05-26T01:26:12.002Z,60.38
2017-05-26T01:28:35.960Z,60.72
2017-05-26T01:30:59.835Z,61.02
2017-05-26T01:33:23.717Z,61.05
2017-05-26T01:35:47.704Z,60.18
2017-05-26T01:38:03.169Z,61.21
2017-05-26T01:40:19.672Z,60.53
2017-05-26T01:42:43.552Z,60.92
2017-05-26T01:45:07.426Z,60.38
2017-05-26T01:47:22.899Z,60.25
2017-05-26T01:49:46.795Z,59.99
2017-05-26T01:52:02.262Z,61.11
2017-05-26T01:54:26.132Z,60.44
2017-05-26T01:56:41.616Z,61.11
2017-05-26T01:58:57.096Z,61.3
2017-05-26T02:01:20.976Z,60.18
2017-05-26T02:03:44.844Z,61.02
2017-05-26T02:06:08.726Z,61.11
2017-05-26T02:08:24.217Z,60.92
2017-05-26T02:10:48.094Z,61.02
2017-05-26T02:13:11.961Z,60.92
2017-05-26T02:15:35.851Z,60.92
2017-05-26T02:17:51.324Z,61.4
2017-05-26T02:20:15.207Z,61.49
2017-05-26T02:22:39.077Z,61.49
2017-05-26T02:25:02.947Z,61.98
2017-05-26T02:29:03.404Z,63.09
2017-05-26T02:31:27.272Z,63
2017-05-26T02:33:51.149Z,62.42
2017-05-26T02:36:06.605Z,62.9
2017-05-26T02:38:30.512Z,62.62
2017-05-26T02:40:45.993Z,62.42
2017-05-26T02:43:09.862Z,62.16
2017-05-26T02:45:33.734Z,62.9
2017-05-26T02:47:57.526Z,62.71
2017-05-26T02:50:21.389Z,62.62
2017-05-26T02:52:36.768Z,63
2017-05-26T02:54:38.568Z,62.42
2017-05-26T02:57:02.411Z,63.38
2017-05-26T02:59:17.789Z,63.19
2017-05-26T03:01:41.668Z,63.38
2017-05-26T03:04:05.540Z,63.86
2017-05-26T03:06:29.416Z,64.22
2017-05-26T03:08:53.195Z,64.89
2017-05-26T03:11:16.963Z,63.86
2017-05-26T03:13:40.737Z,63.92
2017-05-26T03:16:04.522Z,64.02
2017-05-26T03:18:14.387Z,64.31
2017-05-26T03:20:38.251Z,64.12
2017-05-26T03:22:53.616Z,64.22
2017-05-26T03:25:17.386Z,64.4
2017-05-26T03:27:18.763Z,64.5
2017-05-26T03:29:42.613Z,64.31
2017-05-26T03:32:06.379Z,64.5
2017-05-26T03:34:30.153Z,64.69
2017-05-26T03:36:45.537Z,64.34
2017-05-26T03:39:09.306Z,64.79
2017-05-26T03:41:33.083Z,64.89
2017-05-26T03:43:56.863Z,64.59
2017-05-26T03:46:12.216Z,64.4
2017-05-26T03:48:27.610Z,64.98
2017-05-26T03:50:42.999Z,64.98
2017-05-26T03:53:06.772Z,65.94
2017-05-26T03:55:30.549Z,66.22
2017-05-26T03:57:54.324Z,65.55
2017-05-26T04:00:18.101Z,65.26
2017-05-26T04:02:41.974Z,65.84
2017-05-26T04:05:05.745Z,65.65
2017-05-26T04:07:29.534Z,65.11
2017-05-26T04:09:53.408Z,64.34
2017-05-26T04:12:17.277Z,64.25
2017-05-26T04:14:27.592Z,64.92
2017-05-26T04:16:43.016Z,64.05
2017-05-26T04:19:06.896Z,64.25
2017-05-26T04:21:30.673Z,63.42
2017-05-26T04:23:40.544Z,62.48
2017-05-26T04:26:04.400Z,55.71
2017-05-26T04:28:14.720Z,47.7
2017-05-26T04:30:38.857Z,48.88
2017-05-26T04:33:03.037Z,45.98
2017-05-26T04:35:27.232Z,38.29
2017-05-26T04:37:51.627Z,32.99
2017-05-26T04:40:16.137Z,30.99
2017-05-26T04:42:40.838Z,27.64
2017-05-26T04:45:06.681Z,26.21
2017-05-26T04:47:31.593Z,25.35
2017-05-26T04:49:42.305Z,23.83
2017-05-26T04:52:07.566Z,19.4
2017-05-26T04:54:32.887Z,19.4
2017-05-26T04:56:58.431Z,16.9
2017-05-26T04:59:24.040Z,16.8
2017-05-26T05:01:26.296Z,15.25
2017-05-26T05:03:52.036Z,15.84
2017-05-26T05:06:17.861Z,15.82
2017-05-26T05:08:43.789Z,16.78
2017-05-26T05:11:09.826Z,14.56
2017-05-26T05:13:35.861Z,13.03
2017-05-26T05:15:29.669Z,11.85
2017-05-26T05:17:32.066Z,11.47
2017-05-26T05:19:58.337Z,9.12
2017-05-26T05:22:24.681Z,8.91
2017-05-26T05:24:51.018Z,11.55
2017-05-26T05:27:17.465Z,10.38
2017-05-26T05:29:44.009Z,10.09
2017-05-26T05:32:10.539Z,8.33
2017-05-26T05:34:37.201Z,8.33
2017-05-26T05:37:03.944Z,7.74
2017-05-26T05:39:31.716Z,8.81
2017-05-26T05:41:49.975Z,7.44
2017-05-26T05:44:16.802Z,6.56
2017-05-26T05:46:35.059Z,7.15
2017-05-26T05:49:02.013Z,7.43
2017-05-26T05:51:22.403Z,7.04
2017-05-26T05:53:49.360Z,5.96
2017-05-26T05:56:16.423Z,9.69
2017-05-26T05:58:43.464Z,7.73
2017-05-26T06:01:10.522Z,6.34
2017-05-26T06:03:13.234Z,6.74
2017-05-26T06:05:40.356Z,6.95
2017-05-26T06:08:07.404Z,7.24
2017-05-26T06:10:36.510Z,6.15
2017-05-26T06:13:04.686Z,6.95
2017-05-26T06:15:31.849Z,6.65
2017-05-26T06:17:58.995Z,8.32
2017-05-26T06:20:17.546Z,5.26
2017-05-26T06:22:44.703Z,6.45
2017-05-26T06:24:54.651Z,5.36
2017-05-26T06:27:21.813Z,5.55
2017-05-26T06:29:49.054Z,5.96
2017-05-26T06:32:16.365Z,4.55
2017-05-26T06:34:35.505Z,4.06
2017-05-26T06:37:02.875Z,5.35
2017-05-26T06:39:30.239Z,9.38
2017-05-26T06:41:58.651Z,12.23
2017-05-26T06:44:26.593Z,12.02
2017-05-26T06:46:55.086Z,12.43
2017-05-26T06:49:37.398Z,11.84
2017-05-26T06:53:41.355Z,15.89
2017-05-26T06:57:44.797Z,15.98
2017-05-26T07:01:47.941Z,15.6
2017-05-26T07:04:14.387Z,15.01
2017-05-26T07:06:47.579Z,18.38
2017-05-26T07:09:20.668Z,18.41
2017-05-26T07:11:46.696Z,17.54
2017-05-26T07:15:40.341Z,18.5
2017-05-26T07:17:58.570Z,19.16
2017-05-26T07:20:32.106Z,20.12
2017-05-26T07:24:33.982Z,23.09
2017-05-26T07:28:35.716Z,21.85
2017-05-26T07:30:59.527Z,23.94
2017-05-26T07:33:26.994Z,23.02
2017-05-26T07:36:00.073Z,23.02
2017-05-26T07:38:32.037Z,23.66
2017-05-26T07:41:11.988Z,23.68
2017-05-26T07:43:39.485Z,24.82
2017-05-26T07:46:05.879Z,24.25
2017-05-26T07:48:31.409Z,22.35
2017-05-26T07:50:56.970Z,22.14
2017-05-26T07:53:30.027Z,22.24
2017-05-26T07:55:57.509Z,21.66
2017-05-26T07:58:31.528Z,22.06
2017-05-26T08:01:05.005Z,22.16
2017-05-26T08:03:45.572Z,23.97
2017-05-26T08:06:18.055Z,20.44
2017-05-26T08:08:28.948Z,21.3
2017-05-26T08:10:56.592Z,21.59
2017-05-26T08:14:58.411Z,21.11
2017-05-26T08:17:23.985Z,21.69
2017-05-26T08:19:50.524Z,21.78
2017-05-26T08:22:22.128Z,19.87
2017-05-26T08:24:24.372Z,18.52
2017-05-26T08:26:57.652Z,21.59
2017-05-26T08:29:31.154Z,19.77
2017-05-26T08:31:57.663Z,19.78
2017-05-26T08:34:14.710Z,20.62
2017-05-26T08:38:16.503Z,22.31
2017-05-26T08:40:41.995Z,24.15
2017-05-26T08:43:07.511Z,22.06
2017-05-26T08:45:33.025Z,23.08
2017-05-26T08:47:58.502Z,23.44
2017-05-26T08:50:15.352Z,25.01
2017-05-26T08:52:32.241Z,23.31
2017-05-26T08:54:57.595Z,22.72
2017-05-26T08:57:14.484Z,22.61
2017-05-26T08:59:39.896Z,23.55
2017-05-26T09:02:05.307Z,24.32
2017-05-26T09:04:30.721Z,22.41
2017-05-26T09:06:47.637Z,24.07
2017-05-26T09:09:13.051Z,23.27
2017-05-26T09:11:38.459Z,25.2
2017-05-26T09:14:03.778Z,25.29
2017-05-26T09:16:20.581Z,23.26
2017-05-26T09:18:45.896Z,24.91
2017-05-26T09:21:02.700Z,23.77
2017-05-26T09:23:27.943Z,24.89
2017-05-26T09:25:44.736Z,26.53
2017-05-26T09:28:09.920Z,24.8
2017-05-26T09:30:35.130Z,23.08
2017-05-26T09:33:00.459Z,22.02
2017-05-26T09:35:25.654Z,20.98
2017-05-26T09:37:42.462Z,21.26
2017-05-26T09:40:07.780Z,21.92
2017-05-26T09:42:33.076Z,22.48
2017-05-26T09:44:43.869Z,22.58
2017-05-26T09:47:09.060Z,25.16
2017-05-26T09:49:10.851Z,23.83
2017-05-26T09:51:36.026Z,22.02
2017-05-26T09:54:01.233Z,23.16
2017-05-26T09:56:26.449Z,22.96
2017-05-26T09:58:37.177Z,22.98
2017-05-26T10:01:02.424Z,23.35
2017-05-26T10:03:27.625Z,24.8
2017-05-26T10:05:52.737Z,25.65
2017-05-26T10:08:17.837Z,27.54
2017-05-26T10:10:42.932Z,28.29
2017-05-26T10:13:08.055Z,25.84
2017-05-26T10:15:33.153Z,26.78
2017-05-26T10:17:58.174Z,26.1
2017-05-26T10:20:23.271Z,25.91
2017-05-26T10:22:48.371Z,28.4
2017-05-26T10:25:13.314Z,29.76
2017-05-26T10:27:29.881Z,29.49
2017-05-26T10:29:54.784Z,29.78
2017-05-26T10:32:19.683Z,29.86
2017-05-26T10:34:44.576Z,29.86
2017-05-26T10:37:09.473Z,30.83
2017-05-26T10:39:34.376Z,31.21
2017-05-26T10:41:59.298Z,32.89
2017-05-26T10:44:15.671Z,31.3
2017-05-26T10:46:40.473Z,31.29
2017-05-26T10:49:05.272Z,30.72
2017-05-26T10:51:21.574Z,31.19
2017-05-26T10:53:46.371Z,31.68
2017-05-26T10:56:11.159Z,30.9
2017-05-26T10:58:13.272Z,31.88
2017-05-26T11:00:38.034Z,31.9
2017-05-26T11:03:02.830Z,32.65
2017-05-26T11:05:27.641Z,32.75
2017-05-26T11:07:52.397Z,31.51
2017-05-26T11:10:17.114Z,31.87
2017-05-26T11:12:41.927Z,32.26
2017-05-26T11:16:43.092Z,31.58
2017-05-26T11:18:45.096Z,31.29
2017-05-26T11:21:09.941Z,30.52
2017-05-26T11:23:34.643Z,31.1
2017-05-26T11:25:59.358Z,31.19
2017-05-26T11:28:24.127Z,30.54
2017-05-26T11:30:48.936Z,30.71
2017-05-26T11:33:13.733Z,30.25
2017-05-26T11:35:15.278Z,31
2017-05-26T11:37:40.088Z,30.44
2017-05-26T11:40:04.780Z,31.77
2017-05-26T11:42:29.587Z,31.79
2017-05-26T11:44:54.388Z,31.5
2017-05-26T11:47:19.180Z,31.6
2017-05-26T11:49:43.980Z,32.17
2017-05-26T11:52:08.781Z,31.81
2017-05-26T11:54:33.471Z,31.51
2017-05-26T11:56:35.032Z,32.57
2017-05-26T11:58:59.835Z,32.1
2017-05-26T12:01:24.623Z,31.79
2017-05-26T12:03:49.451Z,32.08
2017-05-26T12:06:14.217Z,32.84
2017-05-26T12:08:39.020Z,32.75
2017-05-26T12:10:49.637Z,32.37
2017-05-26T12:12:51.158Z,31.98
2017-05-26T12:14:44.214Z,31.79
2017-05-26T12:17:08.960Z,31.98
2017-05-26T12:19:25.297Z,34.08
2017-05-26T12:21:50.091Z,34.19
2017-05-26T12:24:00.710Z,33.99
2017-05-26T12:26:25.546Z,34.2
2017-05-26T12:28:50.290Z,32.75
2017-05-26T12:31:15.047Z,33.06
2017-05-26T12:33:39.845Z,33.06
2017-05-26T12:35:42.171Z,33.04
2017-05-26T12:37:58.442Z,31.79
2017-05-26T12:40:23.213Z,31.79
2017-05-26T12:42:48.002Z,32.28
2017-05-26T12:45:12.914Z,32.76
2017-05-26T12:47:29.209Z,32.92
2017-05-26T12:49:54.009Z,34.56
2017-05-26T12:52:01.811Z,33.53
2017-05-26T12:54:26.499Z,33.22
2017-05-26T12:56:51.200Z,33.9
2017-05-26T12:59:15.897Z,32.57
2017-05-26T13:01:40.570Z,31.79
2017-05-26T13:03:56.795Z,31.88
2017-05-26T13:06:21.472Z,31.79
2017-05-26T13:08:37.796Z,31.71
2017-05-26T13:10:54.092Z,31.88
2017-05-26T13:13:18.921Z,33.23
2017-05-26T13:15:43.682Z,33.33
2017-05-26T13:18:08.484Z,33.25
2017-05-26T13:20:33.187Z,32
2017-05-26T13:22:57.982Z,31.88
2017-05-26T13:25:14.283Z,31.79
2017-05-26T13:27:39.077Z,32.75
2017-05-26T13:30:03.814Z,32.67
2017-05-26T13:32:29.009Z,33.9
2017-05-26T13:34:53.357Z,33.73
2017-05-26T13:37:01.177Z,32.76
2017-05-26T13:39:25.965Z,33.14
2017-05-26T13:41:42.153Z,32.67
2017-05-26T13:44:06.903Z,32.96
2017-05-26T13:46:31.668Z,32.29
2017-05-26T13:48:56.366Z,31.41
2017-05-26T13:51:21.060Z,31.34
2017-05-26T13:53:45.865Z,31.71
2017-05-26T13:56:10.652Z,31.9
2017-05-26T13:58:35.369Z,33.23
2017-05-26T14:01:00.043Z,33.72
2017-05-26T14:03:24.769Z,32.28
2017-05-26T14:05:49.530Z,32.39
2017-05-26T14:08:14.339Z,32.1
2017-05-26T14:10:39.144Z,32.4
2017-05-26T14:13:03.942Z,31.34
2017-05-26T14:15:28.737Z,31.9
2017-05-26T14:17:45.032Z,31.81
2017-05-26T14:20:09.844Z,31.9
2017-05-26T14:22:34.642Z,32.2
2017-05-26T14:24:59.438Z,32.97
2017-05-26T14:27:09.561Z,32.37
2017-05-26T14:29:34.392Z,32.49
2017-05-26T14:31:35.976Z,32.18
2017-05-26T14:34:00.845Z,33.34
2017-05-26T14:36:25.646Z,32.59
2017-05-26T14:38:50.440Z,32.78
2017-05-26T14:41:15.260Z,32.21
2017-05-26T14:43:40.036Z,31.82
2017-05-26T14:46:04.834Z,33.33
2017-05-26T14:48:29.632Z,32.2
2017-05-26T14:50:54.433Z,32.37
2017-05-26T14:53:19.122Z,32.97
2017-05-26T14:55:43.930Z,33.26
2017-05-26T14:58:00.232Z,33.34
2017-05-26T15:00:25.023Z,32.02
2017-05-26T15:02:49.824Z,32.29
2017-05-26T15:04:51.488Z,32.78
2017-05-26T15:07:16.289Z,34.09
2017-05-26T15:09:41.077Z,33.25
2017-05-26T15:11:57.387Z,33.93
2017-05-26T15:14:22.174Z,33.54
2017-05-26T15:16:46.872Z,33.17
2017-05-26T15:19:11.678Z,33.26
2017-05-26T15:21:36.368Z,33.07
2017-05-26T15:24:01.173Z,32.68
2017-05-26T15:26:25.861Z,32.68
2017-05-26T15:28:50.684Z,32.68
2017-05-26T15:31:15.470Z,33.91
2017-05-26T15:33:31.761Z,33.25
2017-05-26T15:35:56.566Z,33.93
2017-05-26T15:38:12.861Z,34.32
2017-05-26T15:40:37.559Z,34.03
2017-05-26T15:43:02.251Z,33.85
2017-05-26T15:45:27.061Z,34.03
2017-05-26T15:47:51.856Z,34.03
2017-05-26T15:49:53.409Z,33.83
2017-05-26T15:52:18.202Z,33.54
2017-05-26T15:54:34.499Z,33.83
2017-05-26T15:56:59.202Z,34.32
2017-05-26T15:59:23.894Z,33.93
2017-05-26T16:01:25.431Z,33.54
2017-05-26T16:03:50.245Z,34.61
2017-05-26T16:06:15.052Z,33.93
2017-05-26T16:08:39.840Z,34.22
2017-05-26T16:10:56.137Z,34.12
2017-05-26T16:13:20.940Z,34.12
2017-05-26T16:15:45.670Z,34.12
2017-05-26T16:18:10.336Z,34.12
2017-05-26T16:20:26.632Z,34.22
2017-05-26T16:22:51.336Z,33.64
2017-05-26T16:25:16.128Z,34.12
2017-05-26T16:27:40.965Z,34.22
2017-05-26T16:30:06.649Z,34.98
2017-05-26T16:32:31.449Z,34.5
2017-05-26T16:34:56.141Z,34.59
2017-05-26T16:37:20.953Z,35.47
2017-05-26T16:39:37.239Z,34.61
2017-05-26T16:42:01.941Z,34.69
2017-05-26T16:44:26.634Z,35.74
2017-05-26T16:46:42.942Z,35.08
2017-05-26T16:48:53.058Z,34.79
2017-05-26T16:51:17.789Z,34.88
2017-05-26T16:53:42.489Z,35.55
2017-05-26T16:56:07.184Z,35.17
2017-05-26T16:58:31.881Z,35.19
2017-05-26T17:00:48.058Z,34.61
2017-05-26T17:03:12.771Z,34.88
2017-05-26T17:05:37.459Z,35.76
2017-05-26T17:07:53.667Z,35.47
2017-05-26T17:10:09.991Z,35.39
2017-05-26T17:12:34.764Z,35.88
2017-05-26T17:14:59.458Z,35.58
2017-05-26T17:17:24.148Z,36.04
2017-05-26T17:19:40.472Z,36.15
2017-05-26T17:22:05.272Z,35.96
2017-05-26T17:24:29.970Z,36.24
2017-05-26T17:26:54.646Z,36.63
2017-05-26T17:29:10.948Z,37.2
2017-05-26T17:31:27.128Z,37.2
2017-05-26T17:33:51.840Z,37.1
2017-05-26T17:36:16.538Z,37.78
2017-05-26T17:38:41.326Z,37.88
2017-05-26T17:40:57.527Z,37.51
2017-05-26T17:43:22.240Z,36.93
2017-05-26T17:45:32.356Z,37.3
2017-05-26T17:47:48.586Z,38.17
2017-05-26T17:50:13.257Z,38.25
2017-05-26T17:52:37.966Z,38.73
2017-05-26T17:55:02.662Z,38.27
2017-05-26T17:57:27.363Z,38.44
2017-05-26T18:01:19.425Z,39.78
2017-05-26T18:03:44.219Z,40.64
2017-05-26T18:06:09.003Z,39.12
2017-05-26T18:08:33.700Z,38.83
2017-05-26T18:10:58.399Z,39.78
2017-05-26T18:13:24.277Z,39.41
2017-05-26T18:15:49.259Z,40.29
2017-05-26T18:18:13.953Z,40.36
2017-05-26T18:20:39.784Z,40.46
2017-05-26T18:23:05.494Z,40.56
2017-05-26T18:25:29.971Z,40.66
2017-05-26T18:27:55.569Z,40.73
2017-05-26T18:30:20.285Z,41.14
2017-05-26T18:34:21.237Z,41.51
2017-05-26T18:40:06.496Z,41.41
2017-05-26T18:42:31.148Z,42.63
2017-05-26T18:44:55.818Z,42.55
2017-05-26T18:47:20.416Z,42.38
2017-05-26T18:49:44.994Z,42.55
2017-05-26T18:52:09.616Z,42.38
2017-05-26T18:54:34.187Z,42.26
2017-05-26T18:56:50.391Z,42.29
2017-05-26T18:59:14.886Z,42.29
2017-05-26T19:01:39.382Z,42.09
2017-05-26T19:04:03.875Z,42.38
2017-05-26T19:06:28.594Z,43.06
2017-05-26T19:09:00.488Z,43.43
2017-05-26T19:11:36.987Z,42.94
2017-05-26T19:14:02.874Z,42.36
2017-05-26T19:16:27.509Z,42.75
2017-05-26T19:18:52.012Z,43.33
2017-05-26T19:21:17.104Z,42.94
2017-05-26T19:23:18.619Z,42.55
2017-05-26T19:25:43.267Z,43.79
2017-05-26T19:28:07.789Z,43.23
2017-05-26T19:30:32.252Z,43.41
2017-05-26T19:32:56.729Z,44.37
2017-05-26T19:35:12.771Z,44.54
2017-05-26T19:37:37.212Z,44.47
2017-05-26T19:40:04.764Z,44.45
2017-05-26T19:42:29.286Z,45.01
2017-05-26T19:44:53.785Z,45.9
2017-05-26T19:47:19.432Z,46.09
2017-05-26T19:49:49.101Z,45.44
2017-05-26T19:52:05.093Z,44.86
2017-05-26T19:54:29.589Z,45.03
2017-05-26T19:56:54.082Z,45.22
2017-05-26T19:59:18.571Z,46.19
2017-05-26T20:01:43.081Z,46.29
2017-05-26T20:04:07.434Z,45.81
2017-05-26T20:06:31.933Z,45.42
2017-05-26T20:08:56.422Z,44.86
2017-05-26T20:11:20.917Z,46.09
2017-05-26T20:13:45.416Z,45.9
2017-05-26T20:15:55.457Z,46.29
2017-05-26T20:18:19.960Z,46.09
2017-05-26T20:20:44.451Z,46.58
2017-05-26T20:23:08.945Z,47.04
2017-05-26T20:25:24.936Z,47.14
2017-05-26T20:27:49.446Z,46.84
2017-05-26T20:30:13.917Z,47.14
2017-05-26T20:32:38.413Z,47.6
2017-05-26T20:34:48.496Z,47.6
2017-05-26T20:37:12.958Z,47.41
2017-05-26T20:39:14.396Z,48.18
2017-05-26T20:41:38.791Z,48.11
2017-05-26T20:44:03.182Z,47.99
2017-05-26T20:46:27.682Z,48.11
2017-05-26T20:48:52.166Z,48.27
2017-05-26T20:50:45.153Z,48.95
2017-05-26T20:53:09.604Z,49.32
2017-05-26T20:55:34.098Z,49.15
2017-05-26T20:57:58.491Z,49.02
2017-05-26T21:00:22.884Z,49.44
2017-05-26T21:02:47.292Z,49.32
2017-05-26T21:05:11.684Z,49.8
2017-05-26T21:07:36.152Z,49.7
2017-05-26T21:10:03.084Z,49.7
2017-05-26T21:12:16.699Z,49.05
2017-05-26T21:14:41.420Z,50.18
2017-05-26T21:16:43.580Z,49.8
2017-05-26T21:19:00.658Z,49.8
2017-05-26T21:21:39.672Z,49.41
2017-05-26T21:23:55.916Z,49.54
2017-05-26T21:26:22.690Z,49.51
2017-05-26T21:30:22.949Z,48.57
2017-05-26T21:32:47.424Z,50.18
2017-05-26T21:35:11.812Z,50.28
2017-05-26T21:37:36.197Z,50.35
2017-05-26T21:40:00.592Z,50.09
2017-05-26T21:42:02.026Z,50.84
2017-05-26T21:44:26.428Z,51.51
2017-05-26T21:46:42.312Z,50.55
2017-05-26T21:48:35.338Z,50.55
2017-05-26T21:50:59.738Z,51.61
2017-05-26T21:53:24.140Z,51.97
2017-05-26T21:55:48.435Z,51.78
2017-05-26T21:58:12.843Z,53.59
2017-05-26T22:00:37.101Z,52.81
2017-05-26T22:03:01.413Z,53.69
2017-05-26T22:05:25.677Z,52.94
2017-05-26T22:07:49.977Z,52.84
2017-05-26T22:10:14.269Z,52.65
2017-05-26T22:12:30.067Z,53.03
2017-05-26T22:14:54.356Z,52.65
2017-05-26T22:17:39.791Z,52.26
2017-05-26T22:20:04.045Z,52.62
2017-05-26T22:22:28.382Z,53.69
2017-05-26T22:24:52.668Z,53.49
2017-05-26T22:27:16.955Z,53.88
2017-05-26T22:29:32.848Z,54.07
2017-05-26T22:31:57.134Z,54.07
2017-05-26T22:34:21.425Z,54.27
2017-05-26T22:36:45.710Z,54.27
2017-05-26T22:39:09.925Z,54.53
2017-05-26T22:41:34.181Z,54.72
2017-05-26T22:43:58.378Z,54.43
2017-05-26T22:46:22.587Z,55.1
2017-05-26T22:48:38.442Z,54.53
2017-05-26T22:51:02.732Z,54.36
2017-05-26T22:53:27.011Z,53.11
2017-05-26T22:55:51.294Z,53.11
2017-05-26T22:58:15.589Z,53.01
2017-05-26T23:00:39.873Z,53.66
2017-05-26T23:03:04.026Z,53.97
2017-05-26T23:05:28.213Z,54.05
2017-05-26T23:07:52.413Z,54.05
2017-05-26T23:10:16.538Z,53.95
2017-05-26T23:12:40.703Z,54.79
2017-05-26T23:15:04.851Z,54.72
2017-05-26T23:17:20.570Z,55.18
2017-05-26T23:19:36.298Z,55.27
2017-05-26T23:22:00.475Z,54.79
2017-05-26T23:24:24.645Z,54.98
2017-05-26T23:26:48.799Z,54.79
2017-05-26T23:29:12.953Z,55.82
2017-05-26T23:31:37.100Z,56.11
2017-05-26T23:34:01.258Z,56.11
2017-05-26T23:36:25.411Z,56.59
2017-05-26T23:38:49.544Z,55.73
2017-05-26T23:41:13.637Z,56.21
2017-05-26T23:43:37.778Z,56.11
2017-05-26T23:45:53.426Z,55.82
2017-05-26T23:48:17.546Z,56.79
2017-05-26T23:50:41.669Z,57.24
2017-05-26T23:53:05.787Z,57.24
2017-05-26T23:55:29.889Z,56.37
2017-05-26T23:57:31.401Z,56.95
2017-05-26T23:59:47.122Z,57.53
